Terminal Aerodrome Forecast
Issued by NWS Nashville, TN

Home | Current Version | Previous Version | Text Only | Print | Product List | Glossary On
Versions: 1 2 3 4 5 6 7 8 9 10 11 12 13 14 15 16 17 18 19 20 21 22 23 24 25
000
FTUS44 KOHX 011100
TAFBNA
TAF
KBNA 011120Z 0112/0212 16008G16KT P6SM OVC110
     FM011700 19015G25KT 5SM -RA OVC035
     FM012100 20016G26KT 2SM RA OVC015
     FM020200 24014G24KT 5SM -RA OVC025
     FM020500 26013G23KT 6SM -RA OVC035
      TEMPO 0208/0212 6SM -RASN=

USA.gov is the U.S. government's official web portal to all federal, state and local government web resources and services.